createdAt,value
2022-10-05T00:02:24.454Z,9.50
2022-10-05T00:04:56.566Z,9.60
2022-10-05T00:07:24.778Z,9.60
2022-10-05T00:09:59.529Z,9.60
2022-10-05T00:12:29.978Z,9.60
2022-10-05T00:15:00.861Z,9.60
2022-10-05T00:17:30.395Z,9.60
2022-10-05T00:19:57.251Z,9.60
2022-10-05T00:22:33.406Z,9.60
2022-10-05T00:25:02.659Z,9.60
2022-10-05T00:27:36.812Z,9.60
2022-10-05T00:30:17.059Z,9.60
2022-10-05T00:32:44.668Z,9.60
2022-10-05T00:35:12.473Z,9.60
2022-10-05T00:37:39.619Z,9.60
2022-10-05T00:40:16.060Z,9.60
2022-10-05T00:42:57.941Z,9.60
2022-10-05T00:45:33.454Z,9.60
2022-10-05T00:48:30.786Z,9.60
2022-10-05T00:51:28.212Z,9.60
2022-10-05T00:54:09.087Z,9.60
2022-10-05T00:56:54.030Z,9.60
2022-10-05T00:59:43.448Z,9.60
2022-10-05T01:02:25.631Z,9.60
2022-10-05T01:05:25.865Z,9.60
2022-10-05T01:08:18.201Z,9.60
2022-10-05T01:11:02.261Z,9.70
2022-10-05T01:13:39.093Z,9.70
2022-10-05T01:16:19.508Z,9.70
2022-10-05T01:19:19.932Z,9.70
2022-10-05T01:22:19.113Z,9.70
2022-10-05T01:25:21.499Z,9.70
2022-10-05T01:28:10.184Z,9.70
2022-10-05T01:31:09.245Z,9.80
2022-10-05T01:34:17.507Z,9.80
2022-10-05T01:36:49.813Z,9.80
2022-10-05T01:39:57.027Z,9.80
2022-10-05T01:42:45.632Z,9.90
2022-10-05T01:45:32.512Z,9.90
2022-10-05T01:48:15.063Z,9.90
2022-10-05T01:50:56.160Z,9.90
2022-10-05T01:53:35.325Z,9.90
2022-10-05T01:56:34.114Z,10.00
2022-10-05T01:59:16.284Z,9.90
2022-10-05T02:02:05.643Z,9.90
2022-10-05T02:05:04.164Z,9.90
2022-10-05T02:07:40.359Z,9.90
2022-10-05T02:10:55.807Z,9.90
2022-10-05T02:13:44.119Z,9.80
2022-10-05T02:16:18.927Z,9.80
2022-10-05T02:19:28.899Z,9.70
2022-10-05T02:22:14.880Z,9.70
2022-10-05T02:24:48.871Z,9.60
2022-10-05T02:27:21.351Z,9.60
2022-10-05T02:29:49.287Z,9.50
2022-10-05T02:32:23.995Z,9.50
2022-10-05T02:34:51.189Z,9.40
2022-10-05T02:37:39.809Z,9.40
2022-10-05T02:40:28.152Z,9.40
2022-10-05T02:43:22.447Z,9.30
2022-10-05T02:46:08.524Z,9.30
2022-10-05T02:48:50.904Z,9.30
2022-10-05T02:51:28.081Z,9.30
2022-10-05T02:53:58.192Z,9.30
2022-10-05T02:56:49.996Z,9.30
2022-10-05T02:59:25.930Z,9.20
2022-10-05T03:02:23.012Z,9.20
2022-10-05T03:05:20.699Z,9.20
2022-10-05T03:07:57.048Z,9.20
2022-10-05T03:10:51.597Z,9.20
2022-10-05T03:13:43.445Z,9.20
2022-10-05T03:16:31.878Z,9.20
2022-10-05T03:19:22.420Z,9.20
2022-10-05T03:22:08.405Z,9.10
2022-10-05T03:24:50.832Z,9.20
2022-10-05T03:27:36.590Z,9.10
2022-10-05T03:30:15.371Z,9.20
2022-10-05T03:33:04.583Z,9.20
2022-10-05T03:35:47.786Z,9.20
2022-10-05T03:38:33.183Z,9.20
2022-10-05T03:41:11.483Z,9.20
2022-10-05T03:44:00.472Z,9.20
2022-10-05T03:46:46.002Z,9.20
2022-10-05T03:49:49.918Z,9.20
2022-10-05T03:52:23.222Z,9.20
2022-10-05T03:55:36.330Z,9.20
2022-10-05T03:58:10.428Z,9.20
2022-10-05T04:00:40.461Z,9.20
2022-10-05T04:03:32.307Z,9.20
2022-10-05T04:06:05.275Z,9.20
2022-10-05T04:08:59.242Z,9.20
2022-10-05T04:11:39.435Z,9.20
2022-10-05T04:14:46.854Z,9.20
2022-10-05T04:17:17.800Z,9.20
2022-10-05T04:19:56.459Z,9.20
2022-10-05T04:22:30.298Z,9.30
2022-10-05T04:25:21.516Z,9.20
2022-10-05T04:27:54.868Z,9.20
2022-10-05T04:30:24.631Z,9.20
2022-10-05T04:32:59.708Z,9.20
2022-10-05T04:35:41.108Z,9.20
2022-10-05T04:38:27.286Z,9.20
2022-10-05T04:41:30.404Z,9.20
2022-10-05T04:44:35.741Z,9.20
2022-10-05T04:47:13.237Z,9.10
2022-10-05T04:49:55.438Z,9.10
2022-10-05T04:52:28.607Z,9.10
2022-10-05T04:55:04.471Z,9.10
2022-10-05T04:58:00.317Z,9.00
2022-10-05T05:00:52.730Z,9.00
2022-10-05T05:04:07.360Z,9.10
2022-10-05T05:06:37.126Z,9.00
2022-10-05T05:09:37.710Z,9.10
2022-10-05T05:12:39.981Z,9.10
2022-10-05T05:15:37.452Z,9.10
2022-10-05T05:18:26.908Z,9.20
2022-10-05T05:21:12.301Z,9.20
2022-10-05T05:24:08.638Z,9.20
2022-10-05T05:27:11.725Z,9.20
2022-10-05T05:29:44.370Z,9.30
2022-10-05T05:32:32.230Z,9.40
2022-10-05T05:35:35.726Z,9.50
2022-10-05T05:38:14.173Z,9.50
2022-10-05T05:40:55.027Z,9.60
2022-10-05T05:43:32.842Z,9.70
2022-10-05T05:46:00.762Z,9.70
2022-10-05T05:48:40.440Z,9.70
2022-10-05T05:51:19.204Z,9.80
2022-10-05T05:53:52.558Z,9.80
2022-10-05T05:56:34.570Z,9.90
2022-10-05T05:59:24.486Z,10.00
2022-10-05T06:02:07.045Z,10.00
2022-10-05T06:04:43.730Z,10.10
2022-10-05T06:07:16.477Z,10.10
2022-10-05T06:10:15.474Z,10.20
2022-10-05T06:12:47.352Z,10.20
2022-10-05T06:15:21.581Z,10.30
2022-10-05T06:17:52.856Z,10.40
2022-10-05T06:20:33.399Z,10.40
2022-10-05T06:23:03.401Z,10.50
2022-10-05T06:25:47.995Z,10.60
2022-10-05T06:28:18.582Z,10.60
2022-10-05T06:31:05.611Z,10.70
2022-10-05T06:33:51.837Z,10.80
2022-10-05T06:36:46.496Z,10.80
2022-10-05T06:39:16.625Z,10.90
2022-10-05T06:42:08.134Z,11.00
2022-10-05T06:44:46.321Z,11.10
2022-10-05T06:47:22.174Z,11.20
2022-10-05T06:49:58.360Z,11.30
2022-10-05T06:52:35.776Z,11.40
2022-10-05T06:55:05.443Z,11.50
2022-10-05T06:57:32.322Z,11.60
2022-10-05T07:00:06.159Z,11.70
2022-10-05T07:02:41.306Z,11.70
2022-10-05T07:05:13.337Z,11.70
2022-10-05T07:07:53.073Z,11.80
2022-10-05T07:10:38.206Z,11.80
2022-10-05T07:13:23.767Z,11.90
2022-10-05T07:16:23.505Z,12.00
2022-10-05T07:18:53.066Z,12.00
2022-10-05T07:21:44.151Z,12.10
2022-10-05T07:24:29.302Z,12.10
2022-10-05T07:27:13.062Z,12.30
2022-10-05T07:29:53.851Z,12.30
2022-10-05T07:32:40.043Z,12.40
2022-10-05T07:35:33.876Z,12.50
2022-10-05T07:38:08.130Z,12.50
2022-10-05T07:40:53.799Z,12.70
2022-10-05T07:43:29.249Z,12.70
2022-10-05T07:46:11.534Z,12.90
2022-10-05T07:48:50.443Z,13.00
2022-10-05T07:51:20.351Z,13.10
2022-10-05T07:54:07.517Z,13.20
2022-10-05T07:56:45.073Z,13.30
2022-10-05T07:59:14.743Z,13.40
2022-10-05T08:01:46.285Z,13.50
2022-10-05T08:04:36.036Z,13.60
2022-10-05T08:07:11.783Z,13.70
2022-10-05T08:09:59.036Z,13.80
2022-10-05T08:12:53.579Z,13.80
2022-10-05T08:15:25.538Z,13.90
2022-10-05T08:18:02.057Z,14.00
2022-10-05T08:20:34.555Z,14.10
2022-10-05T08:23:31.085Z,14.10
2022-10-05T08:26:35.693Z,14.20
2022-10-05T08:29:16.449Z,14.20
2022-10-05T08:31:50.045Z,14.30
2022-10-05T08:34:32.202Z,14.40
2022-10-05T08:37:30.688Z,14.50
2022-10-05T08:40:14.963Z,14.60
2022-10-05T08:43:00.115Z,14.60
2022-10-05T08:45:32.744Z,14.70
2022-10-05T08:48:42.879Z,14.70
2022-10-05T08:51:18.329Z,14.70
2022-10-05T08:54:09.260Z,14.80
2022-10-05T08:56:41.825Z,14.90
2022-10-05T08:59:32.949Z,14.90
2022-10-05T09:02:10.368Z,15.00
2022-10-05T09:05:12.483Z,15.10
2022-10-05T09:07:47.826Z,15.20
2022-10-05T09:10:35.348Z,15.20
2022-10-05T09:13:28.059Z,15.30
2022-10-05T09:16:27.137Z,15.40
2022-10-05T09:19:00.734Z,15.40
2022-10-05T09:21:54.136Z,15.50
2022-10-05T09:24:27.253Z,15.60
2022-10-05T09:27:16.837Z,15.70
2022-10-05T09:29:52.568Z,15.80
2022-10-05T09:32:34.705Z,15.80
2022-10-05T09:35:04.111Z,15.90
2022-10-05T09:37:48.993Z,16.00
2022-10-05T09:40:47.594Z,16.00
2022-10-05T09:43:44.816Z,16.10
2022-10-05T09:46:39.490Z,16.10
2022-10-05T09:49:24.059Z,16.10
2022-10-05T09:52:19.058Z,16.10
2022-10-05T09:55:25.618Z,16.10
2022-10-05T09:58:00.890Z,16.10
2022-10-05T10:01:08.907Z,16.10
2022-10-05T10:03:38.274Z,16.10
2022-10-05T10:06:19.921Z,16.10
2022-10-05T10:09:15.880Z,16.10
2022-10-05T10:12:46.898Z,16.10
2022-10-05T10:15:38.803Z,16.10
2022-10-05T10:18:23.759Z,16.10
2022-10-05T10:21:11.068Z,16.10
2022-10-05T10:24:33.091Z,16.10
2022-10-05T10:27:27.459Z,16.20
2022-10-05T10:30:36.797Z,16.30
2022-10-05T10:33:40.691Z,16.40
2022-10-05T10:36:24.130Z,16.50
2022-10-05T10:38:58.920Z,16.70
2022-10-05T10:41:34.026Z,16.90
2022-10-05T10:44:11.071Z,17.00
2022-10-05T10:47:14.118Z,17.20
2022-10-05T10:50:18.254Z,17.30
2022-10-05T10:53:21.868Z,17.60
2022-10-05T10:56:14.102Z,17.80
2022-10-05T10:59:01.898Z,18.00
2022-10-05T11:01:57.915Z,18.10
2022-10-05T11:05:18.168Z,18.10
2022-10-05T11:08:02.765Z,18.30
2022-10-05T11:10:29.503Z,18.20
2022-10-05T11:13:11.451Z,18.10
2022-10-05T11:15:50.251Z,18.10
2022-10-05T11:18:26.346Z,17.90
2022-10-05T11:21:26.190Z,17.90
2022-10-05T11:24:14.279Z,18.00
2022-10-05T11:27:02.394Z,18.20
2022-10-05T11:29:47.722Z,18.30
2022-10-05T11:32:22.851Z,18.50
2022-10-05T11:35:18.643Z,18.60
2022-10-05T11:37:54.182Z,18.60
2022-10-05T11:40:21.057Z,18.50
2022-10-05T11:43:17.259Z,18.30
2022-10-05T11:45:55.949Z,18.20
2022-10-05T11:48:26.878Z,18.10
2022-10-05T11:51:12.166Z,18.10
2022-10-05T11:53:52.286Z,17.90
2022-10-05T11:56:19.031Z,17.90
2022-10-05T11:58:58.205Z,17.80
2022-10-05T12:01:35.066Z,17.80
2022-10-05T12:04:27.798Z,17.90
2022-10-05T12:06:57.147Z,17.90
2022-10-05T12:10:06.601Z,17.90
2022-10-05T12:13:01.580Z,18.00
2022-10-05T12:15:57.013Z,18.00
2022-10-05T12:18:43.751Z,18.00
2022-10-05T12:21:27.622Z,18.00
2022-10-05T12:24:05.056Z,18.10
2022-10-05T12:26:50.584Z,18.20
2022-10-05T12:29:37.600Z,18.20
2022-10-05T12:32:17.478Z,18.30
2022-10-05T12:34:44.196Z,18.50
2022-10-05T12:37:52.090Z,18.50
2022-10-05T12:40:30.510Z,18.60
2022-10-05T12:43:07.566Z,18.70
2022-10-05T12:46:18.942Z,18.70
2022-10-05T12:49:01.856Z,18.70
2022-10-05T12:51:42.882Z,18.70
2022-10-05T12:54:24.685Z,18.70
2022-10-05T12:57:04.734Z,18.70
2022-10-05T12:59:50.246Z,18.80
2022-10-05T13:02:25.882Z,18.90
2022-10-05T13:05:11.672Z,19.00
2022-10-05T13:08:08.763Z,19.10
2022-10-05T13:10:46.731Z,19.20
2022-10-05T13:13:16.339Z,19.30
2022-10-05T13:16:04.793Z,19.30
2022-10-05T13:18:54.408Z,19.20
2022-10-05T13:21:48.738Z,19.10
2022-10-05T13:24:24.782Z,19.00
2022-10-05T13:27:03.980Z,18.80
2022-10-05T13:29:42.791Z,18.70
2022-10-05T13:32:21.476Z,18.60
2022-10-05T13:35:21.491Z,18.50
2022-10-05T13:38:03.360Z,18.40
2022-10-05T13:40:47.520Z,18.30
2022-10-05T13:43:26.998Z,18.20
2022-10-05T13:46:12.589Z,18.20
2022-10-05T13:49:12.896Z,18.10
2022-10-05T13:52:10.128Z,18.00
2022-10-05T13:54:51.135Z,18.00
2022-10-05T13:57:54.148Z,17.90
2022-10-05T14:00:25.664Z,17.90
2022-10-05T14:02:56.676Z,17.90
2022-10-05T14:05:28.490Z,17.80
2022-10-05T14:07:55.273Z,17.80
2022-10-05T14:10:34.195Z,17.80
2022-10-05T14:13:09.238Z,17.80
2022-10-05T14:15:41.272Z,17.70
2022-10-05T14:18:27.424Z,17.70
2022-10-05T14:21:03.336Z,17.70
2022-10-05T14:23:30.669Z,17.60
2022-10-05T14:25:57.851Z,17.60
2022-10-05T14:28:33.535Z,17.60
2022-10-05T14:31:01.606Z,17.60
2022-10-05T14:33:34.891Z,17.50
2022-10-05T14:36:02.561Z,17.50
2022-10-05T14:38:50.855Z,17.50
2022-10-05T14:41:19.168Z,17.40
2022-10-05T14:44:02.039Z,17.40
2022-10-05T14:46:32.732Z,17.30
2022-10-05T14:49:14.415Z,17.40
2022-10-05T14:51:42.805Z,17.30
2022-10-05T14:54:34.523Z,17.20
2022-10-05T14:57:06.725Z,17.20
2022-10-05T14:59:46.825Z,17.20
2022-10-05T15:02:23.348Z,17.10
2022-10-05T15:05:05.754Z,17.00
2022-10-05T15:07:49.244Z,16.90
2022-10-05T15:10:42.173Z,16.90
2022-10-05T15:13:24.219Z,16.80
2022-10-05T15:16:04.928Z,16.80
2022-10-05T15:18:48.791Z,16.80
2022-10-05T15:21:42.366Z,16.70
2022-10-05T15:24:27.966Z,16.70
2022-10-05T15:27:01.236Z,16.70
2022-10-05T15:29:56.443Z,16.60
2022-10-05T15:32:31.447Z,16.50
2022-10-05T15:35:10.926Z,16.50
2022-10-05T15:37:47.658Z,16.50
2022-10-05T15:40:36.693Z,16.40
2022-10-05T15:43:16.972Z,16.30
2022-10-05T15:45:57.153Z,16.30
2022-10-05T15:48:41.089Z,16.30
2022-10-05T15:51:37.216Z,16.20
2022-10-05T15:54:30.075Z,16.20
2022-10-05T15:57:08.075Z,16.10
2022-10-05T15:59:46.037Z,16.10
2022-10-05T16:02:29.908Z,16.10
2022-10-05T16:05:15.011Z,16.10
2022-10-05T16:08:10.825Z,16.10
2022-10-05T16:10:41.609Z,16.00
2022-10-05T16:13:19.107Z,15.90
2022-10-05T16:15:51.221Z,15.90
2022-10-05T16:18:20.868Z,15.90
2022-10-05T16:20:53.807Z,15.90
2022-10-05T16:23:45.436Z,15.90
2022-10-05T16:26:20.274Z,15.90
2022-10-05T16:29:23.922Z,15.80
2022-10-05T16:32:15.911Z,15.80
2022-10-05T16:35:18.531Z,15.80
2022-10-05T16:38:26.914Z,15.80
2022-10-05T16:41:16.780Z,15.80
2022-10-05T16:43:57.938Z,15.80
2022-10-05T16:46:39.586Z,15.80
2022-10-05T16:49:17.950Z,15.70
2022-10-05T16:51:44.673Z,15.70
2022-10-05T16:54:27.367Z,15.70
2022-10-05T16:57:17.652Z,15.70
2022-10-05T17:00:23.645Z,15.70
2022-10-05T17:02:56.264Z,15.70
2022-10-05T17:05:26.246Z,15.70
2022-10-05T17:08:26.542Z,15.70
2022-10-05T17:11:17.164Z,15.70
2022-10-05T17:14:02.450Z,15.70
2022-10-05T17:17:03.746Z,15.70
2022-10-05T17:19:46.662Z,15.70
2022-10-05T17:22:39.549Z,15.70
2022-10-05T17:25:24.299Z,15.60
2022-10-05T17:28:24.490Z,15.70
2022-10-05T17:31:12.059Z,15.60
2022-10-05T17:34:24.873Z,15.60
2022-10-05T17:36:57.781Z,15.50
2022-10-05T17:39:50.107Z,15.50
2022-10-05T17:42:29.230Z,15.50
2022-10-05T17:45:34.057Z,15.40
2022-10-05T17:48:33.306Z,15.40
2022-10-05T17:51:18.860Z,15.40
2022-10-05T17:54:04.382Z,15.40
2022-10-05T17:56:47.210Z,15.40
2022-10-05T17:59:45.927Z,15.30
2022-10-05T18:02:40.792Z,15.40
2022-10-05T18:05:14.500Z,15.30
2022-10-05T18:07:49.749Z,15.30
2022-10-05T18:10:24.537Z,15.30
2022-10-05T18:13:00.510Z,15.30
2022-10-05T18:15:27.227Z,15.30
2022-10-05T18:17:59.680Z,15.30
2022-10-05T18:20:26.575Z,15.20
2022-10-05T18:23:09.589Z,15.20
2022-10-05T18:25:52.316Z,15.20
2022-10-05T18:28:58.177Z,15.20
2022-10-05T18:31:45.352Z,15.20
2022-10-05T18:34:32.907Z,15.20
2022-10-05T18:37:39.188Z,15.10
2022-10-05T18:40:24.502Z,15.10
2022-10-05T18:43:03.427Z,15.10
2022-10-05T18:45:37.761Z,15.10
2022-10-05T18:48:22.788Z,15.10
2022-10-05T18:50:52.706Z,15.10
2022-10-05T18:53:38.190Z,15.00
2022-10-05T18:56:04.964Z,15.00
2022-10-05T18:58:35.872Z,14.90
2022-10-05T19:01:10.141Z,14.90
2022-10-05T19:03:51.368Z,14.90
2022-10-05T19:06:26.895Z,14.90
2022-10-05T19:08:53.931Z,14.90
2022-10-05T19:11:45.126Z,14.90
2022-10-05T19:14:20.819Z,14.80
2022-10-05T19:17:14.977Z,14.80
2022-10-05T19:20:20.457Z,14.80
2022-10-05T19:23:15.477Z,14.80
2022-10-05T19:25:54.990Z,14.80
2022-10-05T19:28:35.282Z,14.70
2022-10-05T19:31:02.263Z,14.70
2022-10-05T19:33:41.309Z,14.70
2022-10-05T19:36:11.093Z,14.60
2022-10-05T19:39:03.965Z,14.60
2022-10-05T19:42:05.854Z,14.60
2022-10-05T19:44:53.959Z,14.50
2022-10-05T19:47:44.253Z,14.50
2022-10-05T19:50:25.464Z,14.50
2022-10-05T19:53:24.200Z,14.50
2022-10-05T19:55:51.555Z,14.50
2022-10-05T19:58:27.322Z,14.40
2022-10-05T20:00:59.657Z,14.40
2022-10-05T20:03:29.522Z,14.40
2022-10-05T20:06:08.058Z,14.30
2022-10-05T20:08:39.483Z,14.40
2022-10-05T20:11:18.516Z,14.30
2022-10-05T20:14:09.440Z,14.30
2022-10-05T20:16:55.598Z,14.20
2022-10-05T20:19:50.238Z,14.20
2022-10-05T20:22:39.609Z,14.20
2022-10-05T20:25:31.034Z,14.10
2022-10-05T20:27:58.124Z,14.10
2022-10-05T20:30:28.088Z,14.10
2022-10-05T20:33:00.676Z,14.10
2022-10-05T20:35:30.716Z,14.10
2022-10-05T20:38:00.048Z,14.00
2022-10-05T20:40:29.238Z,14.00
2022-10-05T20:42:57.289Z,14.00
2022-10-05T20:45:24.455Z,14.00
2022-10-05T20:47:51.330Z,14.00
2022-10-05T20:50:18.532Z,14.00
2022-10-05T20:52:46.042Z,14.00
2022-10-05T20:55:13.053Z,13.90
2022-10-05T20:57:46.101Z,13.90
2022-10-05T21:00:13.680Z,13.90
2022-10-05T21:02:40.657Z,13.80
2022-10-05T21:05:08.245Z,13.80
2022-10-05T21:07:36.370Z,13.80
2022-10-05T21:10:03.877Z,13.70
2022-10-05T21:12:32.755Z,13.70
2022-10-05T21:15:00.019Z,13.70
2022-10-05T21:17:26.960Z,13.70
2022-10-05T21:19:53.754Z,13.60
2022-10-05T21:22:20.615Z,13.60
2022-10-05T21:24:48.455Z,13.60
2022-10-05T21:27:15.236Z,13.60
2022-10-05T21:29:42.224Z,13.60
2022-10-05T21:32:11.701Z,13.50
2022-10-05T21:34:40.054Z,13.60
2022-10-05T21:37:07.878Z,13.80
2022-10-05T21:39:35.395Z,13.40
2022-10-05T21:42:02.861Z,13.40
2022-10-05T21:44:29.904Z,13.30
2022-10-05T21:46:56.958Z,13.30
2022-10-05T21:49:25.143Z,13.30
2022-10-05T21:51:52.292Z,13.20
2022-10-05T21:54:22.393Z,13.20
2022-10-05T21:56:52.701Z,13.20
2022-10-05T21:59:24.425Z,13.10
2022-10-05T22:01:52.456Z,13.00
2022-10-05T22:04:19.291Z,13.00
2022-10-05T22:06:46.159Z,12.90
2022-10-05T22:09:12.977Z,12.90
2022-10-05T22:11:40.000Z,12.90
2022-10-05T22:14:07.031Z,12.80
2022-10-05T22:16:38.213Z,12.80
2022-10-05T22:19:07.035Z,12.70
2022-10-05T22:21:38.214Z,12.70
2022-10-05T22:24:05.606Z,12.70
2022-10-05T22:26:34.876Z,12.70
2022-10-05T22:29:02.582Z,12.70
2022-10-05T22:31:29.757Z,12.60
2022-10-05T22:33:56.807Z,12.60
2022-10-05T22:36:23.897Z,12.50
2022-10-05T22:38:51.732Z,12.60
2022-10-05T22:41:18.615Z,12.50
2022-10-05T22:43:50.149Z,12.50
2022-10-05T22:46:17.907Z,12.50
2022-10-05T22:48:44.888Z,12.50
2022-10-05T22:51:11.851Z,12.50
2022-10-05T22:53:39.789Z,12.50
2022-10-05T22:56:12.628Z,12.50
2022-10-05T22:58:41.392Z,12.40
2022-10-05T23:01:11.453Z,12.40
2022-10-05T23:03:38.529Z,12.40
2022-10-05T23:06:09.120Z,12.40
2022-10-05T23:08:37.686Z,12.30
2022-10-05T23:11:09.192Z,12.30
2022-10-05T23:13:36.450Z,12.30
2022-10-05T23:16:18.492Z,12.30
2022-10-05T23:18:49.072Z,12.30
2022-10-05T23:21:16.155Z,12.30
2022-10-05T23:23:47.458Z,12.30
2022-10-05T23:26:15.601Z,12.30
2022-10-05T23:28:46.624Z,12.40
2022-10-05T23:31:16.387Z,12.50
2022-10-05T23:33:43.320Z,12.50
2022-10-05T23:36:17.161Z,12.50
2022-10-05T23:38:45.058Z,12.50
2022-10-05T23:41:12.595Z,12.50
2022-10-05T23:43:40.191Z,12.60
2022-10-05T23:46:08.304Z,12.60
2022-10-05T23:48:38.310Z,12.60
2022-10-05T23:51:06.975Z,12.60
2022-10-05T23:53:34.132Z,12.50
2022-10-05T23:56:02.555Z,12.50
2022-10-05T23:58:30.040Z,12.50
